sensor_id;sensor_type;location;lat;lon;timestamp;temperature;humidity
53645;DHT22;39547;45.554;12.068;2022-10-19T00:05:31;15.80;84.50
53645;DHT22;39547;45.554;12.068;2022-10-19T00:11:34;15.80;84.60
53645;DHT22;39547;45.554;12.068;2022-10-19T00:17:36;15.80;84.60
53645;DHT22;39547;45.554;12.068;2022-10-19T00:23:37;15.70;84.60
53645;DHT22;39547;45.554;12.068;2022-10-19T00:29:40;15.70;84.60
53645;DHT22;39547;45.554;12.068;2022-10-19T00:35:42;15.70;84.70
53645;DHT22;39547;45.554;12.068;2022-10-19T00:41:45;15.70;84.70
53645;DHT22;39547;45.554;12.068;2022-10-19T00:47:47;15.70;84.70
53645;DHT22;39547;45.554;12.068;2022-10-19T00:53:48;15.60;84.70
53645;DHT22;39547;45.554;12.068;2022-10-19T00:59:50;15.60;84.70
53645;DHT22;39547;45.554;12.068;2022-10-19T01:05:52;15.60;84.80
53645;DHT22;39547;45.554;12.068;2022-10-19T01:49:47;15.20;85.00
53645;DHT22;39547;45.554;12.068;2022-10-19T01:55:51;15.20;85.00
53645;DHT22;39547;45.554;12.068;2022-10-19T02:01:53;15.20;85.00
53645;DHT22;39547;45.554;12.068;2022-10-19T02:07:59;15.10;85.10
53645;DHT22;39547;45.554;12.068;2022-10-19T02:14:07;15.10;85.00
53645;DHT22;39547;45.554;12.068;2022-10-19T02:20:09;15.10;85.10
53645;DHT22;39547;45.554;12.068;2022-10-19T02:26:11;15.00;85.10
53645;DHT22;39547;45.554;12.068;2022-10-19T02:32:13;15.00;85.10
53645;DHT22;39547;45.554;12.068;2022-10-19T02:38:19;15.00;85.20
53645;DHT22;39547;45.554;12.068;2022-10-19T02:51:01;14.90;85.20
53645;DHT22;39547;45.554;12.068;2022-10-19T02:57:21;14.80;85.10
53645;DHT22;39547;45.554;12.068;2022-10-19T03:03:23;14.80;85.10
53645;DHT22;39547;45.554;12.068;2022-10-19T03:09:24;14.70;85.20
53645;DHT22;39547;45.554;12.068;2022-10-19T03:15:25;14.70;85.20
53645;DHT22;39547;45.554;12.068;2022-10-19T03:21:29;14.70;85.30
53645;DHT22;39547;45.554;12.068;2022-10-19T03:27:31;14.60;85.40
53645;DHT22;39547;45.554;12.068;2022-10-19T03:33:32;14.60;85.30
53645;DHT22;39547;45.554;12.068;2022-10-19T03:39:34;14.60;85.40
53645;DHT22;39547;45.554;12.068;2022-10-19T03:45:35;14.50;85.40
53645;DHT22;39547;45.554;12.068;2022-10-19T03:51:37;14.40;85.20
53645;DHT22;39547;45.554;12.068;2022-10-19T03:57:38;14.30;85.20
53645;DHT22;39547;45.554;12.068;2022-10-19T04:03:40;14.20;85.50
53645;DHT22;39547;45.554;12.068;2022-10-19T04:09:41;14.20;85.50
53645;DHT22;39547;45.554;12.068;2022-10-19T04:15:43;14.20;85.50
53645;DHT22;39547;45.554;12.068;2022-10-19T04:21:47;14.20;85.50
53645;DHT22;39547;45.554;12.068;2022-10-19T04:27:48;14.20;85.60
53645;DHT22;39547;45.554;12.068;2022-10-19T04:33:50;14.20;85.50
53645;DHT22;39547;45.554;12.068;2022-10-19T04:39:51;14.20;85.50
53645;DHT22;39547;45.554;12.068;2022-10-19T04:45:52;14.20;85.60
53645;DHT22;39547;45.554;12.068;2022-10-19T04:51:54;14.20;85.50
53645;DHT22;39547;45.554;12.068;2022-10-19T04:57:55;14.20;85.60
53645;DHT22;39547;45.554;12.068;2022-10-19T05:03:59;14.10;85.60
53645;DHT22;39547;45.554;12.068;2022-10-19T05:10:01;14.10;85.60
53645;DHT22;39547;45.554;12.068;2022-10-19T05:16:05;14.00;85.50
53645;DHT22;39547;45.554;12.068;2022-10-19T05:22:07;14.00;85.60
53645;DHT22;39547;45.554;12.068;2022-10-19T05:28:09;14.00;85.70
53645;DHT22;39547;45.554;12.068;2022-10-19T05:34:10;13.90;85.70
53645;DHT22;39547;45.554;12.068;2022-10-19T05:40:12;13.90;85.70
53645;DHT22;39547;45.554;12.068;2022-10-19T05:46:15;13.90;85.70
53645;DHT22;39547;45.554;12.068;2022-10-19T05:52:19;13.90;85.70
53645;DHT22;39547;45.554;12.068;2022-10-19T05:58:21;13.90;85.80
53645;DHT22;39547;45.554;12.068;2022-10-19T06:04:23;14.00;85.80
53645;DHT22;39547;45.554;12.068;2022-10-19T06:10:25;13.90;85.70
53645;DHT22;39547;45.554;12.068;2022-10-19T06:16:27;14.00;85.70
53645;DHT22;39547;45.554;12.068;2022-10-19T06:22:29;14.00;85.70
53645;DHT22;39547;45.554;12.068;2022-10-19T06:28:31;14.00;85.70
53645;DHT22;39547;45.554;12.068;2022-10-19T06:34:32;14.00;85.70
53645;DHT22;39547;45.554;12.068;2022-10-19T06:40:34;14.20;85.80
53645;DHT22;39547;45.554;12.068;2022-10-19T06:46:37;14.20;85.80
53645;DHT22;39547;45.554;12.068;2022-10-19T06:52:38;14.30;85.80
53645;DHT22;39547;45.554;12.068;2022-10-19T06:58:40;14.50;85.80
53645;DHT22;39547;45.554;12.068;2022-10-19T07:04:42;14.60;85.80
53645;DHT22;39547;45.554;12.068;2022-10-19T07:10:43;14.70;85.70
53645;DHT22;39547;45.554;12.068;2022-10-19T07:16:45;14.90;85.60
53645;DHT22;39547;45.554;12.068;2022-10-19T07:22:47;15.10;85.40
53645;DHT22;39547;45.554;12.068;2022-10-19T07:28:49;15.30;85.30
53645;DHT22;39547;45.554;12.068;2022-10-19T07:34:50;15.50;85.10
53645;DHT22;39547;45.554;12.068;2022-10-19T07:41:02;15.70;85.10
53645;DHT22;39547;45.554;12.068;2022-10-19T07:47:04;15.80;85.00
53645;DHT22;39547;45.554;12.068;2022-10-19T07:53:06;16.00;85.00
53645;DHT22;39547;45.554;12.068;2022-10-19T07:59:08;16.20;84.80
53645;DHT22;39547;45.554;12.068;2022-10-19T08:05:13;16.40;84.60
53645;DHT22;39547;45.554;12.068;2022-10-19T08:11:24;16.60;84.50
53645;DHT22;39547;45.554;12.068;2022-10-19T08:17:26;16.80;84.30
53645;DHT22;39547;45.554;12.068;2022-10-19T08:23:28;17.00;84.10
53645;DHT22;39547;45.554;12.068;2022-10-19T08:29:29;17.20;83.90
53645;DHT22;39547;45.554;12.068;2022-10-19T08:35:30;17.50;83.70
53645;DHT22;39547;45.554;12.068;2022-10-19T08:54:18;18.00;82.60
53645;DHT22;39547;45.554;12.068;2022-10-19T09:13:12;18.70;81.70
53645;DHT22;39547;45.554;12.068;2022-10-19T09:19:26;18.80;81.50
53645;DHT22;39547;45.554;12.068;2022-10-19T09:25:32;19.10;80.80
53645;DHT22;39547;45.554;12.068;2022-10-19T09:31:37;19.30;79.90
53645;DHT22;39547;45.554;12.068;2022-10-19T09:37:43;19.50;79.80
53645;DHT22;39547;45.554;12.068;2022-10-19T09:43:51;19.70;79.40
53645;DHT22;39547;45.554;12.068;2022-10-19T09:50:17;19.80;77.70
53645;DHT22;39547;45.554;12.068;2022-10-19T09:56:22;20.00;78.20
53645;DHT22;39547;45.554;12.068;2022-10-19T10:02:33;20.20;77.80
53645;DHT22;39547;45.554;12.068;2022-10-19T10:08:42;20.40;75.80
53645;DHT22;39547;45.554;12.068;2022-10-19T10:14:45;20.70;75.90
53645;DHT22;39547;45.554;12.068;2022-10-19T10:21:00;20.80;75.70
53645;DHT22;39547;45.554;12.068;2022-10-19T10:27:04;21.00;72.50
53645;DHT22;39547;45.554;12.068;2022-10-19T10:33:09;21.20;74.00
53645;DHT22;39547;45.554;12.068;2022-10-19T10:39:16;21.30;73.50
53645;DHT22;39547;45.554;12.068;2022-10-19T10:45:32;21.60;73.40
53645;DHT22;39547;45.554;12.068;2022-10-19T10:51:43;21.80;73.20
53645;DHT22;39547;45.554;12.068;2022-10-19T10:57:48;21.90;73.10
53645;DHT22;39547;45.554;12.068;2022-10-19T11:04:07;22.00;72.80
53645;DHT22;39547;45.554;12.068;2022-10-19T11:10:35;22.20;72.50
53645;DHT22;39547;45.554;12.068;2022-10-19T11:16:42;22.30;70.30
53645;DHT22;39547;45.554;12.068;2022-10-19T11:22:58;22.40;71.20
53645;DHT22;39547;45.554;12.068;2022-10-19T11:35:53;22.80;70.50
53645;DHT22;39547;45.554;12.068;2022-10-19T12:13:56;23.80;67.00
53645;DHT22;39547;45.554;12.068;2022-10-19T12:20:03;24.00;67.50
53645;DHT22;39547;45.554;12.068;2022-10-19T12:26:08;24.10;67.00
53645;DHT22;39547;45.554;12.068;2022-10-19T12:32:13;24.20;65.50
53645;DHT22;39547;45.554;12.068;2022-10-19T12:38:28;24.30;65.00
53645;DHT22;39547;45.554;12.068;2022-10-19T12:51:10;24.40;62.70
53645;DHT22;39547;45.554;12.068;2022-10-19T12:57:22;24.50;63.70
53645;DHT22;39547;45.554;12.068;2022-10-19T13:03:28;24.50;62.70
53645;DHT22;39547;45.554;12.068;2022-10-19T13:28:34;24.60;62.10
53645;DHT22;39547;45.554;12.068;2022-10-19T13:34:23;24.60;61.60
53645;DHT22;39547;45.554;12.068;2022-10-19T13:40:25;24.40;60.90
53645;DHT22;39547;45.554;12.068;2022-10-19T14:11:47;23.20;63.90
53645;DHT22;39547;45.554;12.068;2022-10-19T14:17:50;23.00;64.30
53645;DHT22;39547;45.554;12.068;2022-10-19T14:23:51;22.90;64.40
53645;DHT22;39547;45.554;12.068;2022-10-19T14:29:53;22.80;64.50
53645;DHT22;39547;45.554;12.068;2022-10-19T14:35:55;22.70;64.80
53645;DHT22;39547;45.554;12.068;2022-10-19T14:42:03;22.60;64.60
53645;DHT22;39547;45.554;12.068;2022-10-19T14:48:06;22.50;64.80
53645;DHT22;39547;45.554;12.068;2022-10-19T14:54:26;22.50;65.00
53645;DHT22;39547;45.554;12.068;2022-10-19T15:00:32;22.30;65.20
53645;DHT22;39547;45.554;12.068;2022-10-19T15:06:34;22.20;65.60
53645;DHT22;39547;45.554;12.068;2022-10-19T15:12:40;22.20;65.90
53645;DHT22;39547;45.554;12.068;2022-10-19T15:18:42;22.00;66.20
53645;DHT22;39547;45.554;12.068;2022-10-19T15:31:24;21.80;66.90
53645;DHT22;39547;45.554;12.068;2022-10-19T15:37:26;21.60;67.30
53645;DHT22;39547;45.554;12.068;2022-10-19T15:55:43;21.20;68.00
53645;DHT22;39547;45.554;12.068;2022-10-19T16:01:45;21.00;68.30
53645;DHT22;39547;45.554;12.068;2022-10-19T16:07:50;20.90;68.60
53645;DHT22;39547;45.554;12.068;2022-10-19T16:13:52;20.70;68.90
53645;DHT22;39547;45.554;12.068;2022-10-19T16:19:54;20.60;69.10
53645;DHT22;39547;45.554;12.068;2022-10-19T16:25:55;20.40;69.40
53645;DHT22;39547;45.554;12.068;2022-10-19T16:31:57;20.30;69.70
53645;DHT22;39547;45.554;12.068;2022-10-19T16:37:58;20.10;70.00
53645;DHT22;39547;45.554;12.068;2022-10-19T16:44:00;20.00;70.30
53645;DHT22;39547;45.554;12.068;2022-10-19T16:50:03;19.80;70.50
53645;DHT22;39547;45.554;12.068;2022-10-19T16:56:10;19.70;70.80
53645;DHT22;39547;45.554;12.068;2022-10-19T17:02:12;19.70;71.00
53645;DHT22;39547;45.554;12.068;2022-10-19T17:08:14;19.50;71.30
53645;DHT22;39547;45.554;12.068;2022-10-19T17:14:17;19.40;71.60
53645;DHT22;39547;45.554;12.068;2022-10-19T17:20:18;19.30;71.90
53645;DHT22;39547;45.554;12.068;2022-10-19T17:26:25;19.30;72.20
53645;DHT22;39547;45.554;12.068;2022-10-19T17:32:27;19.20;72.50
53645;DHT22;39547;45.554;12.068;2022-10-19T17:38:28;19.10;72.80
53645;DHT22;39547;45.554;12.068;2022-10-19T17:44:30;19.10;73.00
53645;DHT22;39547;45.554;12.068;2022-10-19T17:50:31;19.10;73.20
53645;DHT22;39547;45.554;12.068;2022-10-19T17:56:34;19.10;73.30
53645;DHT22;39547;45.554;12.068;2022-10-19T18:02:35;19.00;73.60
53645;DHT22;39547;45.554;12.068;2022-10-19T18:08:39;18.90;73.90
53645;DHT22;39547;45.554;12.068;2022-10-19T18:14:43;18.80;74.20
53645;DHT22;39547;45.554;12.068;2022-10-19T18:20:45;18.70;74.60
53645;DHT22;39547;45.554;12.068;2022-10-19T18:26:50;18.60;74.90
53645;DHT22;39547;45.554;12.068;2022-10-19T18:32:51;18.50;75.20
53645;DHT22;39547;45.554;12.068;2022-10-19T18:38:55;18.50;75.60
53645;DHT22;39547;45.554;12.068;2022-10-19T18:44:57;18.40;75.80
53645;DHT22;39547;45.554;12.068;2022-10-19T18:51:03;18.30;76.00
53645;DHT22;39547;45.554;12.068;2022-10-19T18:57:04;18.20;76.20
53645;DHT22;39547;45.554;12.068;2022-10-19T19:03:05;18.20;76.50
53645;DHT22;39547;45.554;12.068;2022-10-19T19:09:09;18.10;76.70
53645;DHT22;39547;45.554;12.068;2022-10-19T19:15:10;18.10;76.90
53645;DHT22;39547;45.554;12.068;2022-10-19T19:21:15;18.00;77.10
53645;DHT22;39547;45.554;12.068;2022-10-19T19:27:16;18.00;77.40
53645;DHT22;39547;45.554;12.068;2022-10-19T19:33:18;17.90;77.60
53645;DHT22;39547;45.554;12.068;2022-10-19T19:39:19;17.80;77.80
53645;DHT22;39547;45.554;12.068;2022-10-19T19:45:21;17.80;78.10
53645;DHT22;39547;45.554;12.068;2022-10-19T19:51:22;17.70;78.30
53645;DHT22;39547;45.554;12.068;2022-10-19T19:57:24;17.70;78.50
53645;DHT22;39547;45.554;12.068;2022-10-19T20:03:25;17.60;78.70
53645;DHT22;39547;45.554;12.068;2022-10-19T20:09:27;17.50;78.80
53645;DHT22;39547;45.554;12.068;2022-10-19T20:15:29;17.50;79.20
53645;DHT22;39547;45.554;12.068;2022-10-19T20:21:31;17.40;79.80
53645;DHT22;39547;45.554;12.068;2022-10-19T20:27:34;17.30;80.00
53645;DHT22;39547;45.554;12.068;2022-10-19T20:33:37;17.30;80.30
53645;DHT22;39547;45.554;12.068;2022-10-19T20:39:38;17.20;80.80
53645;DHT22;39547;45.554;12.068;2022-10-19T20:45:40;17.10;81.20
53645;DHT22;39547;45.554;12.068;2022-10-19T20:51:41;17.00;81.60
53645;DHT22;39547;45.554;12.068;2022-10-19T20:57:42;17.00;81.60
53645;DHT22;39547;45.554;12.068;2022-10-19T21:03:49;17.00;81.30
53645;DHT22;39547;45.554;12.068;2022-10-19T21:09:53;17.00;81.20
53645;DHT22;39547;45.554;12.068;2022-10-19T21:15:54;16.90;81.10
53645;DHT22;39547;45.554;12.068;2022-10-19T21:21:59;17.00;81.30
53645;DHT22;39547;45.554;12.068;2022-10-19T21:28:03;16.90;81.40
53645;DHT22;39547;45.554;12.068;2022-10-19T21:34:07;16.80;81.40
53645;DHT22;39547;45.554;12.068;2022-10-19T21:40:09;16.90;81.50
53645;DHT22;39547;45.554;12.068;2022-10-19T21:46:13;16.80;81.40
53645;DHT22;39547;45.554;12.068;2022-10-19T21:52:15;16.80;81.50
53645;DHT22;39547;45.554;12.068;2022-10-19T21:58:17;16.80;81.60
53645;DHT22;39547;45.554;12.068;2022-10-19T22:04:18;16.80;81.70
53645;DHT22;39547;45.554;12.068;2022-10-19T22:10:20;16.80;81.70
53645;DHT22;39547;45.554;12.068;2022-10-19T22:16:21;16.70;81.80
53645;DHT22;39547;45.554;12.068;2022-10-19T22:22:23;16.70;81.90
53645;DHT22;39547;45.554;12.068;2022-10-19T22:28:25;16.70;82.00
53645;DHT22;39547;45.554;12.068;2022-10-19T22:34:26;16.60;82.10
53645;DHT22;39547;45.554;12.068;2022-10-19T22:40:28;16.60;82.10
53645;DHT22;39547;45.554;12.068;2022-10-19T22:53:46;16.50;82.20
53645;DHT22;39547;45.554;12.068;2022-10-19T22:59:48;16.40;82.30
53645;DHT22;39547;45.554;12.068;2022-10-19T23:05:49;16.30;82.30
53645;DHT22;39547;45.554;12.068;2022-10-19T23:11:50;16.30;82.40
53645;DHT22;39547;45.554;12.068;2022-10-19T23:17:52;16.30;82.40
53645;DHT22;39547;45.554;12.068;2022-10-19T23:23:53;16.20;82.40
53645;DHT22;39547;45.554;12.068;2022-10-19T23:29:55;16.20;82.50
53645;DHT22;39547;45.554;12.068;2022-10-19T23:36:13;16.20;82.60
53645;DHT22;39547;45.554;12.068;2022-10-19T23:42:14;16.20;82.60
53645;DHT22;39547;45.554;12.068;2022-10-19T23:48:16;16.20;82.60
53645;DHT22;39547;45.554;12.068;2022-10-19T23:54:17;16.20;82.60
